KSTC/STC METAR and TAF weather

Enter ICAO airport designator
Station Type Date Time Source
KSTC METAR 2020/07/15 04:53 UTC NOAA

KSTC 150453Z AUTO 00000KT 10SM CLR 13/12 A3001 RMK AO2 SLP168 T01330122


Station Type Date Time Source
KSTC Decoded METAR 2020/07/15 04:53 UTC NOAA

ST. CLOUD REGIONAL AIRPORT, MN, United States (KSTC) 45-33N 094-03W
Jul 15, 2020 - 12:53 AM EDT / 2020.07.15 0453 UTC
Wind: Calm:0
Visibility: 10 mile(s):0
Sky conditions: clear
Temperature: 55.9 F (13.3 C)
Dew Point: 54.0 F (12.2 C)
Relative Humidity: 93%
Pressure (altimeter): 30.01 in. Hg (1016 hPa)
ob: KSTC 150453Z AUTO 00000KT 10SM CLR 13/12 A3001 RMK AO2 SLP168 T01330122
cycle: 5

Station Type Date Time Source
KSTC TAF 2020/07/15 06:22 UTC NOAA

TAF KSTC 150520Z 1506/1606 VRB03KT P6SM FEW250
FM151600 23010KT P6SM SCT250
FM160100 20004KT P6SM SKC

Example: see airport list